Time;durP1;ratioP1;P1;durP2;ratioP2;P2;SDS_P1;SDS_P2;PMS_P1;PMS_P2;Temp;Humidity;BMP_temperature;BMP_pressure;BME280_temperature;BME280_humidity;BME280_pressure;Samples;Min_cycle;Max_cycle;Signal;HPM_P1;HPM_P2
2020/03/15 20:44:35;;;;;;;5.6;3.2;;;;;;;7.9;68.30762;957.8287;;;;
2020/03/15 20:47:00;;;;;;;8.6;5.9;;;;;;;7.88;68.21387;957.812;;;;
2020/03/15 20:49:25;;;;;;;9.8;6.9;;;;;;;7.76;69.16699;957.8242;;;;
2020/03/15 20:51:50;;;;;;;9.2;6;;;;;;;7.67;70.19141;957.8745;;;;
2020/03/15 20:54:15;;;;;;;8.8;5.7;;;;;;;7.6;70.39746;957.8889;;;;
2020/03/15 20:56:41;;;;;;;8.9;5.8;;;;;;;7.62;69.75977;957.8535;;;;
2020/03/15 20:59:06;;;;;;;8.5;5.9;;;;;;;7.58;71.07031;957.8445;;;;
2020/03/15 21:01:31;;;;;;;8.7;5.3;;;;;;;7.63;70.26465;957.8894;;;;
2020/03/15 21:06:16;;;;;;;8.3;5.6;;;;;;;7.57;70.3125;957.897;;;;
2020/03/15 21:08:41;;;;;;;9.1;5.8;;;;;;;7.42;71.11133;957.8638;;;;
2020/03/15 21:11:07;;;;;;;8.9;5.5;;;;;;;7.23;71.60449;957.9196;;;;
2020/03/15 21:13:32;;;;;;;9.6;6.9;;;;;;;7.2;71.67969;957.9058;;;;
2020/03/15 21:15:57;;;;;;;15.4;9.3;;;;;;;7.28;71.27051;957.9567;;;;
2020/03/15 21:18:22;;;;;;;14;9;;;;;;;7.2;72.01074;957.8816;;;;
2020/03/15 21:20:47;;;;;;;11.3;7.6;;;;;;;7.16;72.2793;957.9055;;;;
2020/03/15 21:23:12;;;;;;;10.5;6.7;;;;;;;7.29;71.5332;957.9666;;;;
2020/03/15 21:25:37;;;;;;;11.9;7.2;;;;;;;6.99;72.94629;957.9377;;;;
2020/03/15 21:28:02;;;;;;;12.7;6.9;;;;;;;6.89;73.9668;957.9825;;;;
2020/03/15 21:30:27;;;;;;;8.8;6.4;;;;;;;6.83;73.8877;957.9579;;;;
2020/03/15 21:32:52;;;;;;;9.7;6.6;;;;;;;7.02;73.09961;957.9377;;;;
2020/03/15 21:35:17;;;;;;;8.6;6.2;;;;;;;7.09;72.30176;957.9684;;;;
2020/03/15 21:37:42;;;;;;;11;6.5;;;;;;;7.08;72.49414;957.9833;;;;
2020/03/15 21:40:07;;;;;;;9.9;6.3;;;;;;;7.02;73.32813;958.0641;;;;
2020/03/15 21:42:33;;;;;;;9;6.2;;;;;;;7.05;72.74902;958.0714;;;;
2020/03/15 21:47:02;;;;;;;9.6;5.9;;;;;;;6.98;73.5957;958.0865;;;;
2020/03/15 21:49:27;;;;;;;10.4;6.1;;;;;;;6.96;73.29395;958.0704;;;;
2020/03/15 21:51:52;;;;;;;10.3;6.4;;;;;;;6.84;74.23145;958.0773;;;;
2020/03/15 21:54:17;;;;;;;11.5;6.7;;;;;;;6.85;74.01758;958.0948;;;;
2020/03/15 21:56:42;;;;;;;13.4;9.7;;;;;;;6.75;74.78809;958.1667;;;;
2020/03/15 21:59:07;;;;;;;14.8;11;;;;;;;6.93;73.76758;958.1722;;;;
2020/03/15 22:01:32;;;;;;;11.1;7.5;;;;;;;6.83;74.24316;958.1306;;;;
2020/03/15 22:03:58;;;;;;;10;7.1;;;;;;;6.72;74.85156;958.1594;;;;
2020/03/15 22:06:23;;;;;;;10.7;6.7;;;;;;;6.71;75.17969;958.1738;;;;
2020/03/15 22:08:48;;;;;;;8;6.2;;;;;;;6.79;74.72363;958.2026;;;;
2020/03/15 22:11:13;;;;;;;10.4;6.6;;;;;;;6.73;75.14941;958.2564;;;;
2020/03/15 22:13:38;;;;;;;7.7;6.5;;;;;;;6.73;75.19531;958.2547;;;;
2020/03/15 22:16:03;;;;;;;9.1;6.8;;;;;;;6.63;75.58691;958.2667;;;;
2020/03/15 22:18:28;;;;;;;9.4;7.2;;;;;;;6.69;75.61133;958.2808;;;;
2020/03/15 22:20:53;;;;;;;9.2;6.4;;;;;;;6.65;75.67188;958.235;;;;
2020/03/15 22:23:18;;;;;;;8.7;6.7;;;;;;;6.79;74.72754;958.2266;;;;
2020/03/15 22:25:43;;;;;;;9.2;6.9;;;;;;;6.8;74.5918;958.2405;;;;
2020/03/15 22:28:08;;;;;;;9.4;6.9;;;;;;;6.68;75.25391;958.2667;;;;
2020/03/15 22:30:33;;;;;;;11.8;7.3;;;;;;;6.56;75.7793;958.2499;;;;
2020/03/15 22:32:59;;;;;;;10.1;6.9;;;;;;;6.56;76.31738;958.301;;;;
2020/03/15 22:35:24;;;;;;;12.1;6.9;;;;;;;6.57;76.11328;958.242;;;;
2020/03/15 22:37:49;;;;;;;10;6.7;;;;;;;6.56;76.47559;958.2629;;;;
2020/03/15 22:40:14;;;;;;;10.5;7.3;;;;;;;6.52;76.68555;958.2841;;;;
2020/03/15 22:42:39;;;;;;;10.9;7.5;;;;;;;6.41;77.15625;958.2564;;;;
2020/03/15 22:45:05;;;;;;;11.7;7.7;;;;;;;6.41;76.67773;958.2428;;;;
2020/03/15 22:47:30;;;;;;;8.9;7;;;;;;;6.41;76.83691;958.2587;;;;
2020/03/15 22:49:55;;;;;;;9.6;7.2;;;;;;;6.41;76.89453;958.2241;;;;
2020/03/15 22:52:20;;;;;;;9.9;7.3;;;;;;;6.32;77.51465;958.2704;;;;
2020/03/15 22:54:45;;;;;;;9.4;6.8;;;;;;;6.26;77.50488;958.3113;;;;
2020/03/15 22:57:11;;;;;;;10.2;7.4;;;;;;;6.25;77.63965;958.3387;;;;
2020/03/15 22:59:36;;;;;;;10.4;7.5;;;;;;;6.24;77.78516;958.3195;;;;
2020/03/15 23:02:02;;;;;;;10.8;7.6;;;;;;;6.16;78.36426;958.3203;;;;
2020/03/15 23:04:27;;;;;;;10.4;7.6;;;;;;;6.15;78.2373;958.3084;;;;
2020/03/15 23:06:53;;;;;;;13.9;8.5;;;;;;;6.15;78.75195;958.3546;;;;
2020/03/15 23:09:18;;;;;;;11.8;8;;;;;;;6.19;78.50586;958.3193;;;;
2020/03/15 23:11:43;;;;;;;9.9;7.8;;;;;;;6.25;77.54883;958.2986;;;;
2020/03/15 23:14:09;;;;;;;11.5;8.2;;;;;;;6.19;78.08398;958.3161;;;;
2020/03/15 23:16:34;;;;;;;10.3;8;;;;;;;6.18;77.54883;958.3304;;;;
2020/03/15 23:18:59;;;;;;;13.1;8.4;;;;;;;6.11;78.20605;958.2966;;;;
2020/03/15 23:21:24;;;;;;;12.2;7.6;;;;;;;6.21;77.79102;958.3103;;;;
2020/03/15 23:23:49;;;;;;;12.5;8;;;;;;;6.17;77.40918;958.276;;;;
2020/03/15 23:26:14;;;;;;;11.2;7.8;;;;;;;6.18;77.7998;958.3418;;;;
2020/03/15 23:28:39;;;;;;;9.5;7.5;;;;;;;6.1;77.41895;958.2936;;;;
2020/03/15 23:31:05;;;;;;;9.7;7.3;;;;;;;6.08;77.74609;958.2553;;;;
2020/03/15 23:33:30;;;;;;;9.6;7.5;;;;;;;6.21;76.95996;958.2529;;;;
2020/03/15 23:35:55;;;;;;;9.9;7.7;;;;;;;6.17;77.2168;958.2777;;;;
2020/03/15 23:38:20;;;;;;;11.1;8;;;;;;;6.09;77.81543;958.2805;;;;
2020/03/15 23:40:45;;;;;;;10.7;7.7;;;;;;;6.06;77.93652;958.2981;;;;
2020/03/15 23:43:11;;;;;;;10.9;7.7;;;;;;;6.07;78.26855;958.3403;;;;
2020/03/15 23:45:36;;;;;;;11.6;8.5;;;;;;;6.04;78.41113;958.343;;;;
2020/03/15 23:48:01;;;;;;;12.4;8.5;;;;;;;6.01;78.29102;958.3351;;;;
2020/03/15 23:50:26;;;;;;;11.3;8.6;;;;;;;6.03;78.07813;958.3691;;;;
2020/03/15 23:52:51;;;;;;;12.5;8.8;;;;;;;6.01;78.05176;958.4264;;;;
2020/03/15 23:55:16;;;;;;;10.7;8.2;;;;;;;5.96;78.95313;958.4758;;;;
2020/03/15 23:57:41;;;;;;;10.9;8.5;;;;;;;5.91;79.51367;958.4746;;;;
